Time;durP1;ratioP1;P1;durP2;ratioP2;P2;SDS_P1;SDS_P2;PMS_P1;PMS_P2;Temp;Humidity;BMP_temperature;BMP_pressure;BME280_temperature;BME280_humidity;BME280_pressure;Samples;Min_cycle;Max_cycle;Signal;HPM_P1;HPM_P2
2023/09/11 00:00:45;;;;;;;13.37;9.50;;;20.90;71.40;;;;;;5061055;28;20178;-72
2023/09/11 00:03:10;;;;;;;13.57;9.60;;;20.80;71.30;;;;;;5061760;28;20516;-72
2023/09/11 00:05:36;;;;;;;13.83;8.97;;;20.80;71.60;;;;;;5051251;28;20201;-73
2023/09/11 00:08:02;;;;;;;15.57;9.60;;;20.80;71.70;;;;;;5060616;28;20205;-73
2023/09/11 00:10:28;;;;;;;14.10;9.47;;;20.80;71.60;;;;;;5061210;28;20189;-73
2023/09/11 00:12:53;;;;;;;15.77;10.23;;;20.90;71.00;;;;;;5057991;28;20417;-72
2023/09/11 00:15:19;;;;;;;15.93;9.80;;;20.90;71.10;;;;;;5055469;28;20625;-72
2023/09/11 00:17:44;;;;;;;17.17;9.77;;;21.00;71.40;;;;;;5060017;28;20673;-72
2023/09/11 00:20:11;;;;;;;14.50;8.73;;;21.00;71.60;;;;;;5064902;28;20208;-74
2023/09/11 00:22:37;;;;;;;17.03;9.87;;;21.00;71.60;;;;;;5059853;28;20206;-74
2023/09/11 00:25:02;;;;;;;15.77;9.87;;;20.70;72.60;;;;;;5064490;28;20472;-73
2023/09/11 00:27:28;;;;;;;15.23;9.20;;;20.60;73.00;;;;;;5063568;28;20443;-74
2023/09/11 00:29:54;;;;;;;21.63;10.50;;;20.40;73.70;;;;;;5068062;28;20197;-73
2023/09/11 00:32:20;;;;;;;13.87;9.33;;;20.20;74.50;;;;;;5054216;28;20243;-73
2023/09/11 00:34:45;;;;;;;14.80;9.70;;;20.20;74.80;;;;;;5063659;28;20216;-74
2023/09/11 00:37:11;;;;;;;15.77;9.90;;;20.20;74.90;;;;;;5058664;28;20188;-74
2023/09/11 00:39:36;;;;;;;13.03;9.97;;;20.20;74.80;;;;;;5066733;28;20243;-74
2023/09/11 00:42:02;;;;;;;15.13;10.13;;;20.20;74.90;;;;;;5054107;28;20811;-73
2023/09/11 00:44:29;;;;;;;17.20;9.73;;;20.20;74.80;;;;;;5058611;28;20573;-73
2023/09/11 00:46:55;;;;;;;16.40;9.93;;;20.20;74.60;;;;;;5050911;28;20192;-73
2023/09/11 00:49:22;;;;;;;14.13;9.60;;;20.20;74.50;;;;;;5060407;28;20482;-73
2023/09/11 00:51:50;;;;;;;13.90;9.87;;;20.20;74.90;;;;;;5054708;28;21110;-74
2023/09/11 00:54:18;;;;;;;14.23;9.97;;;20.20;74.90;;;;;;5058818;28;20858;-73
2023/09/11 00:56:45;;;;;;;15.30;9.43;;;20.20;74.90;;;;;;5057065;28;20448;-73
2023/09/11 00:59:12;;;;;;;16.70;10.20;;;20.30;74.50;;;;;;5060727;28;20959;-73
2023/09/11 01:01:41;;;;;;;18.03;10.23;;;20.40;74.00;;;;;;5062122;28;20452;-72
2023/09/11 01:04:07;;;;;;;15.13;10.80;;;20.40;74.20;;;;;;5063182;28;20953;-73
2023/09/11 01:06:33;;;;;;;11.83;9.00;;;20.30;74.30;;;;;;5055652;28;20482;-73
2023/09/11 01:08:58;;;;;;;14.80;9.57;;;20.30;74.60;;;;;;5065309;28;20416;-73
2023/09/11 01:11:24;;;;;;;15.43;9.90;;;20.30;74.00;;;;;;5058239;28;20181;-73
2023/09/11 01:13:50;;;;;;;18.20;10.77;;;20.30;73.50;;;;;;5058461;28;20175;-73
2023/09/11 01:16:25;;;;;;;14.67;10.23;;;20.20;74.20;;;;;;5059425;28;20434;-73
2023/09/11 01:19:22;;;;;;;16.37;10.37;;;20.20;74.60;;;;;;5059351;28;20194;-72
2023/09/11 01:21:59;;;;;;;20.63;10.83;;;20.20;74.60;;;;;;5063093;28;20444;-73
2023/09/11 01:25:04;;;;;;;13.70;9.13;;;20.20;74.90;;;;;;5053669;28;21022;-72
2023/09/11 01:27:48;;;;;;;15.67;10.20;;;20.20;75.10;;;;;;5061213;28;20526;-74
2023/09/11 01:30:14;;;;;;;14.10;9.07;;;20.30;74.90;;;;;;5061681;28;20463;-73
2023/09/11 01:32:41;;;;;;;14.50;8.80;;;20.30;74.50;;;;;;5055240;28;20483;-72
2023/09/11 01:35:07;;;;;;;12.77;8.77;;;20.30;74.30;;;;;;5051349;28;20481;-72
2023/09/11 01:37:32;;;;;;;14.30;9.43;;;20.30;74.50;;;;;;5056020;28;20435;-72
2023/09/11 01:39:58;;;;;;;13.90;9.00;;;20.30;74.30;;;;;;5058621;28;20984;-73
2023/09/11 01:42:33;;;;;;;17.07;10.90;;;20.30;74.50;;;;;;5054115;28;20693;-72
2023/09/11 01:45:00;;;;;;;14.97;10.30;;;20.20;74.60;;;;;;5051898;28;20318;-73
2023/09/11 01:47:28;;;;;;;14.27;9.27;;;20.10;75.10;;;;;;5058728;28;20424;-72
2023/09/11 01:49:55;;;;;;;14.10;10.37;;;20.10;75.10;;;;;;5063641;28;20452;-71
2023/09/11 01:52:22;;;;;;;18.73;10.17;;;20.00;75.40;;;;;;5052506;28;20928;-72
2023/09/11 01:54:49;;;;;;;17.33;9.33;;;20.00;75.50;;;;;;5059413;28;20474;-72
2023/09/11 01:57:15;;;;;;;14.17;9.60;;;20.00;75.20;;;;;;5060399;28;20424;-72
2023/09/11 01:59:41;;;;;;;17.90;9.93;;;19.90;75.20;;;;;;5056517;28;20420;-72
2023/09/11 02:02:07;;;;;;;16.90;9.70;;;19.90;75.10;;;;;;5056168;28;20423;-73
2023/09/11 02:04:32;;;;;;;16.20;10.37;;;19.90;75.50;;;;;;5058809;28;20242;-70
2023/09/11 02:06:58;;;;;;;14.77;9.70;;;19.90;75.50;;;;;;5049094;28;20194;-74
2023/09/11 02:09:23;;;;;;;13.17;9.57;;;19.90;75.70;;;;;;5057030;28;20189;-72
2023/09/11 02:11:49;;;;;;;16.20;9.50;;;19.90;75.70;;;;;;5049904;28;20173;-72
2023/09/11 02:14:14;;;;;;;17.73;10.20;;;19.90;75.70;;;;;;5057222;28;20200;-73
2023/09/11 02:16:40;;;;;;;17.03;10.70;;;20.00;75.50;;;;;;5043273;28;20334;-73
2023/09/11 02:19:06;;;;;;;14.00;9.60;;;19.90;75.20;;;;;;5060062;28;20710;-73
2023/09/11 02:21:31;;;;;;;15.20;9.43;;;19.90;75.40;;;;;;5059864;28;20181;-73
2023/09/11 02:23:57;;;;;;;14.33;9.13;;;19.90;75.20;;;;;;5056664;28;20181;-72
2023/09/11 02:26:24;;;;;;;16.67;9.90;;;20.00;75.50;;;;;;5046404;28;20207;-72
2023/09/11 02:28:50;;;;;;;16.60;9.80;;;20.10;75.40;;;;;;5062428;28;20653;-72
2023/09/11 02:31:15;;;;;;;14.43;10.20;;;20.10;74.80;;;;;;5054801;28;20486;-72
2023/09/11 02:33:41;;;;;;;14.67;8.90;;;20.10;74.60;;;;;;5058876;28;20184;-73
2023/09/11 02:36:06;;;;;;;14.70;9.50;;;20.10;74.50;;;;;;5047738;28;20270;-72
2023/09/11 02:38:32;;;;;;;19.27;10.97;;;20.00;74.60;;;;;;5063928;28;20533;-72
2023/09/11 02:40:57;;;;;;;12.87;8.40;;;20.10;74.50;;;;;;5053740;28;20192;-72
2023/09/11 02:43:23;;;;;;;17.40;11.23;;;20.00;74.50;;;;;;5062609;28;20209;-73
2023/09/11 02:45:49;;;;;;;14.50;10.20;;;19.90;74.80;;;;;;5050665;28;20321;-73
2023/09/11 02:48:14;;;;;;;21.23;10.60;;;19.80;75.20;;;;;;5067123;28;20204;-73
2023/09/11 02:50:40;;;;;;;14.77;8.97;;;19.70;75.50;;;;;;5053176;28;20958;-74
2023/09/11 02:53:09;;;;;;;16.60;10.33;;;19.70;75.50;;;;;;5062174;28;20272;-72
2023/09/11 02:55:41;;;;;;;17.37;11.07;;;19.70;75.70;;;;;;5051287;28;20219;-73
2023/09/11 02:58:07;;;;;;;16.07;10.30;;;19.60;75.80;;;;;;5053651;28;20960;-73
2023/09/11 03:00:34;;;;;;;16.87;10.77;;;19.60;75.90;;;;;;5058815;28;20454;-73
2023/09/11 03:03:01;;;;;;;18.37;10.53;;;19.60;76.10;;;;;;5062155;28;20218;-73
2023/09/11 03:05:27;;;;;;;14.83;10.00;;;19.50;76.20;;;;;;5050284;28;20846;-73
2023/09/11 03:07:52;;;;;;;19.50;10.63;;;19.60;76.70;;;;;;5061033;28;20438;-73
2023/09/11 03:10:18;;;;;;;16.83;10.57;;;19.70;76.40;;;;;;5055874;28;20795;-73
2023/09/11 03:12:43;;;;;;;18.40;10.90;;;19.70;76.10;;;;;;5054503;28;20189;-74
2023/09/11 03:15:10;;;;;;;18.30;10.67;;;19.70;76.10;;;;;;5047813;28;20242;-74
2023/09/11 03:17:35;;;;;;;16.83;9.83;;;19.70;76.10;;;;;;5057246;28;20263;-73
2023/09/11 03:20:01;;;;;;;18.40;10.67;;;19.70;75.50;;;;;;5060301;28;20418;-73
2023/09/11 03:22:28;;;;;;;15.10;9.70;;;19.60;75.50;;;;;;5060436;28;20180;-73
2023/09/11 03:24:54;;;;;;;14.80;10.07;;;19.60;75.80;;;;;;5052399;28;20217;-72
2023/09/11 03:27:19;;;;;;;17.80;10.60;;;19.60;75.80;;;;;;5052569;28;20877;-71
2023/09/11 03:29:45;;;;;;;15.17;10.23;;;19.60;76.10;;;;;;5061382;28;20304;-72
2023/09/11 03:32:10;;;;;;;16.00;10.00;;;19.60;76.40;;;;;;5058825;28;20188;-74
2023/09/11 03:34:36;;;;;;;15.73;10.30;;;19.60;76.50;;;;;;5061134;28;20302;-75
2023/09/11 03:37:01;;;;;;;15.10;10.30;;;19.60;76.50;;;;;;5050547;28;20567;-73
2023/09/11 03:39:27;;;;;;;13.50;9.70;;;19.50;76.80;;;;;;5060783;28;20572;-73
2023/09/11 03:41:53;;;;;;;15.90;10.50;;;19.50;76.80;;;;;;5062489;28;20192;-72
2023/09/11 03:44:18;;;;;;;16.77;10.40;;;19.50;77.00;;;;;;5058744;28;20259;-72
2023/09/11 03:46:44;;;;;;;22.40;10.17;;;19.40;77.00;;;;;;5051446;28;20251;-72
2023/09/11 03:49:09;;;;;;;18.30;11.10;;;19.30;77.40;;;;;;5064547;28;20180;-72
2023/09/11 03:51:35;;;;;;;17.00;10.43;;;19.40;77.60;;;;;;5053731;28;20177;-72
2023/09/11 03:54:06;;;;;;;15.33;9.80;;;19.40;77.40;;;;;;5062910;28;20220;-74
2023/09/11 03:56:31;;;;;;;13.83;9.10;;;19.50;77.10;;;;;;5061217;28;20208;-73
2023/09/11 03:58:57;;;;;;;13.43;9.53;;;19.40;77.30;;;;;;5062256;28;20973;-73
2023/09/11 04:01:23;;;;;;;17.30;10.10;;;19.40;77.40;;;;;;5060646;28;20196;-73
2023/09/11 04:03:48;;;;;;;16.40;9.97;;;19.30;77.40;;;;;;5060538;28;20258;-74
2023/09/11 04:06:14;;;;;;;16.57;11.30;;;19.30;77.60;;;;;;5054562;28;20216;-73
2023/09/11 04:08:40;;;;;;;18.10;10.00;;;19.20;77.80;;;;;;5058674;28;20425;-73
2023/09/11 04:11:06;;;;;;;15.53;10.50;;;19.10;78.00;;;;;;5062928;28;20680;-73
2023/09/11 04:13:31;;;;;;;18.17;10.77;;;19.10;78.10;;;;;;5057187;28;20181;-72
2023/09/11 04:15:57;;;;;;;17.93;10.53;;;19.20;78.00;;;;;;5055277;28;20294;-74
2023/09/11 04:18:22;;;;;;;17.40;11.13;;;19.20;78.00;;;;;;5055463;28;20188;-72
2023/09/11 04:20:48;;;;;;;17.17;11.00;;;19.20;78.00;;;;;;5062322;28;20192;-73
2023/09/11 04:23:13;;;;;;;15.47;10.00;;;19.10;78.00;;;;;;5052546;28;20195;-73
2023/09/11 04:25:44;;;;;;;15.50;10.00;;;19.10;78.10;;;;;;5058966;28;20246;-73
2023/09/11 04:28:09;;;;;;;22.10;11.30;;;19.10;78.30;;;;;;5059445;28;20609;-73
2023/09/11 04:30:35;;;;;;;17.13;11.00;;;19.00;78.40;;;;;;5062216;28;20505;-73
2023/09/11 04:33:02;;;;;;;14.60;10.10;;;19.00;78.60;;;;;;5064493;28;20686;-73
2023/09/11 04:35:28;;;;;;;15.17;10.23;;;19.00;78.60;;;;;;5053391;28;20275;-73
2023/09/11 04:37:53;;;;;;;16.77;11.20;;;19.00;78.70;;;;;;5065547;28;20430;-74
2023/09/11 04:40:19;;;;;;;17.17;11.17;;;19.00;78.90;;;;;;5060092;28;20242;-74
2023/09/11 04:42:45;;;;;;;15.10;10.60;;;19.00;78.70;;;;;;5073956;28;20188;-72
2023/09/11 04:45:11;;;;;;;16.80;10.73;;;19.00;78.90;;;;;;5055645;28;20251;-72
2023/09/11 04:47:36;;;;;;;16.83;10.90;;;19.00;79.00;;;;;;5063927;28;20457;-73
2023/09/11 04:50:03;;;;;;;18.10;11.40;;;19.00;78.40;;;;;;5054170;28;20180;-73
2023/09/11 04:52:28;;;;;;;15.47;10.73;;;18.90;78.40;;;;;;5058237;28;20675;-74
2023/09/11 04:54:54;;;;;;;18.27;11.10;;;18.80;78.70;;;;;;5054955;28;20488;-73
2023/09/11 04:57:20;;;;;;;16.73;11.47;;;18.80;79.00;;;;;;5060922;28;20195;-73
2023/09/11 04:59:46;;;;;;;18.73;11.50;;;18.70;79.20;;;;;;5058897;28;20418;-72
2023/09/11 05:02:12;;;;;;;17.97;11.63;;;18.60;79.70;;;;;;5058739;28;20184;-73
2023/09/11 05:04:42;;;;;;;21.80;11.90;;;18.50;80.00;;;;;;5055537;28;20209;-72
2023/09/11 05:07:08;;;;;;;18.20;10.90;;;18.30;80.30;;;;;;5060508;28;20190;-76
2023/09/11 05:09:33;;;;;;;21.30;12.40;;;18.30;80.60;;;;;;5055597;28;20429;-74
2023/09/11 05:11:59;;;;;;;21.40;12.37;;;18.30;80.80;;;;;;5060067;28;20426;-75
2023/09/11 05:14:25;;;;;;;19.30;11.50;;;18.30;80.80;;;;;;5059173;28;20209;-74
2023/09/11 05:16:50;;;;;;;18.87;10.97;;;18.30;80.80;;;;;;5053869;28;20665;-75
2023/09/11 05:19:16;;;;;;;16.10;10.67;;;18.30;80.50;;;;;;5059229;28;20490;-75
2023/09/11 05:21:42;;;;;;;22.00;12.27;;;18.40;80.30;;;;;;5066197;28;20191;-73
2023/09/11 05:24:08;;;;;;;17.47;11.03;;;18.40;80.30;;;;;;5051977;28;20194;-73
2023/09/11 05:26:33;;;;;;;18.47;11.30;;;18.40;80.50;;;;;;5052952;28;20216;-75
2023/09/11 05:28:59;;;;;;;16.50;11.33;;;18.50;80.00;;;;;;5062913;28;20221;-74
2023/09/11 05:31:25;;;;;;;17.80;11.47;;;18.60;79.90;;;;;;5060131;28;20677;-74
2023/09/11 05:33:51;;;;;;;18.63;10.80;;;18.60;79.50;;;;;;5063405;28;20651;-73
2023/09/11 05:36:18;;;;;;;21.07;11.60;;;18.70;79.50;;;;;;5051059;28;20478;-74
2023/09/11 05:38:47;;;;;;;17.60;11.33;;;18.70;79.70;;;;;;5059966;28;20542;-73
2023/09/11 05:41:14;;;;;;;17.73;11.43;;;18.70;79.50;;;;;;5056853;28;20429;-74
2023/09/11 05:43:42;;;;;;;18.93;11.40;;;18.80;79.60;;;;;;5060339;28;20428;-73
2023/09/11 05:46:08;;;;;;;17.67;10.67;;;18.80;79.30;;;;;;5049877;28;20569;-74
2023/09/11 05:48:34;;;;;;;17.30;11.53;;;18.90;79.20;;;;;;5058293;28;20584;-73
2023/09/11 05:51:00;;;;;;;18.90;11.67;;;19.00;79.30;;;;;;5053496;28;20478;-74
2023/09/11 05:53:26;;;;;;;17.23;11.20;;;19.00;79.30;;;;;;5058266;28;20209;-73
2023/09/11 05:55:52;;;;;;;19.03;11.03;;;19.10;79.00;;;;;;5056891;28;20854;-72
2023/09/11 05:58:18;;;;;;;18.13;10.27;;;19.20;78.90;;;;;;5062958;28;20222;-73
2023/09/11 06:00:45;;;;;;;18.90;11.80;;;19.20;78.90;;;;;;5062616;28;20932;-73
2023/09/11 06:03:10;;;;;;;17.00;11.67;;;19.40;78.40;;;;;;5068539;28;20308;-72
2023/09/11 06:05:36;;;;;;;17.70;11.60;;;19.30;78.10;;;;;;5055010;28;20498;-73
2023/09/11 06:08:03;;;;;;;20.83;11.40;;;19.50;77.40;;;;;;5058742;28;20201;-73
2023/09/11 06:10:29;;;;;;;19.47;12.40;;;19.80;76.40;;;;;;5057050;28;20424;-73
2023/09/11 06:12:55;;;;;;;18.67;11.27;;;20.30;75.70;;;;;;5060010;28;20428;-74
2023/09/11 06:15:20;;;;;;;19.23;10.97;;;20.90;73.60;;;;;;5047729;28;20219;-74
2023/09/11 06:17:46;;;;;;;15.60;10.53;;;21.20;71.40;;;;;;5064983;28;20779;-73
2023/09/11 06:20:13;;;;;;;19.83;11.73;;;21.10;71.00;;;;;;5062747;28;20192;-73
2023/09/11 06:22:39;;;;;;;16.13;10.60;;;20.90;72.00;;;;;;5060618;28;20198;-72
2023/09/11 06:25:07;;;;;;;16.93;11.20;;;20.70;72.70;;;;;;5048686;28;20458;-72
2023/09/11 06:27:34;;;;;;;17.90;11.50;;;20.60;73.20;;;;;;5062778;28;20225;-73
2023/09/11 06:30:00;;;;;;;17.80;12.03;;;20.50;73.50;;;;;;5061926;28;20483;-73
2023/09/11 06:32:26;;;;;;;27.63;12.07;;;20.50;73.20;;;;;;5053456;28;20444;-74
2023/09/11 06:34:51;;;;;;;27.10;11.83;;;20.50;73.00;;;;;;5050748;28;20523;-73
2023/09/11 06:37:17;;;;;;;21.97;11.10;;;20.50;73.20;;;;;;5055941;28;20679;-74
2023/09/11 06:39:43;;;;;;;18.20;11.23;;;20.40;73.60;;;;;;5055646;28;20649;-74
2023/09/11 06:42:08;;;;;;;16.50;11.00;;;20.30;74.00;;;;;;5055524;28;20207;-72
2023/09/11 06:44:34;;;;;;;18.63;12.30;;;20.20;74.50;;;;;;5063168;28;20576;-73
2023/09/11 06:46:59;;;;;;;18.80;11.30;;;20.20;74.90;;;;;;5053630;28;20276;-73
2023/09/11 06:49:25;;;;;;;18.67;11.23;;;20.10;75.50;;;;;;5064025;28;20259;-73
2023/09/11 06:51:51;;;;;;;17.23;11.70;;;20.20;75.40;;;;;;5061747;28;20185;-73
2023/09/11 06:54:17;;;;;;;17.43;11.13;;;20.30;75.40;;;;;;5060735;28;20656;-73
2023/09/11 06:56:42;;;;;;;18.57;12.40;;;20.40;75.20;;;;;;5054264;28;20210;-74
2023/09/11 06:59:08;;;;;;;21.03;11.80;;;20.40;75.10;;;;;;5053766;28;20787;-74
2023/09/11 07:01:38;;;;;;;20.83;12.43;;;20.50;75.20;;;;;;5051202;28;20221;-74
2023/09/11 07:04:10;;;;;;;16.07;11.23;;;20.50;74.80;;;;;;5051321;28;20553;-75
2023/09/11 07:06:41;;;;;;;24.50;11.37;;;20.70;74.20;;;;;;5046695;28;20531;-73
2023/09/11 07:09:07;;;;;;;17.47;11.50;;;20.70;74.00;;;;;;5060138;28;20516;-73
2023/09/11 07:11:33;;;;;;;17.47;11.10;;;20.80;73.60;;;;;;5058806;28;20448;-73
2023/09/11 07:13:59;;;;;;;19.00;12.07;;;20.90;72.90;;;;;;5057927;28;20466;-72
2023/09/11 07:16:25;;;;;;;15.93;10.17;;;21.00;72.60;;;;;;5053242;28;20472;-73
2023/09/11 07:18:51;;;;;;;20.03;11.70;;;21.10;72.60;;;;;;5062141;28;20841;-74
2023/09/11 07:21:17;;;;;;;22.10;12.87;;;21.20;71.80;;;;;;5065817;28;20198;-73
2023/09/11 07:23:42;;;;;;;16.87;11.37;;;21.30;71.70;;;;;;5062206;28;20788;-73
2023/09/11 07:26:08;;;;;;;19.80;12.10;;;21.30;71.70;;;;;;5036452;23;20240;-73
2023/09/11 07:28:59;;;;;;;16.50;10.70;;;21.40;71.40;;;;;;5020671;28;20218;-71
2023/09/11 07:31:25;;;;;;;13.83;10.20;;;21.50;71.30;;;;;;5011859;28;20181;-70
2023/09/11 07:33:51;;;;;;;16.60;11.73;;;21.60;71.00;;;;;;5021638;28;20451;-71
2023/09/11 07:36:20;;;;;;;20.87;11.63;;;21.70;70.50;;;;;;5009260;28;20492;-68
2023/09/11 07:38:46;;;;;;;17.27;11.07;;;21.80;70.50;;;;;;5011438;28;20498;-72
2023/09/11 07:41:14;;;;;;;17.63;11.47;;;21.90;70.40;;;;;;5010748;28;20472;-70
2023/09/11 07:43:40;;;;;;;24.80;13.33;;;22.00;70.40;;;;;;5010686;28;20849;-69
2023/09/11 07:46:06;;;;;;;18.07;12.03;;;22.00;70.40;;;;;;5005466;28;20521;-70
2023/09/11 07:48:31;;;;;;;27.87;14.33;;;22.10;70.40;;;;;;5010159;28;20243;-71
2023/09/11 07:50:57;;;;;;;21.50;13.40;;;22.20;70.40;;;;;;5005650;28;20182;-71
2023/09/11 07:53:23;;;;;;;26.33;14.20;;;22.20;71.10;;;;;;5011511;28;20717;-70
2023/09/11 07:55:49;;;;;;;20.47;12.93;;;22.20;71.30;;;;;;5006042;28;20235;-70
2023/09/11 07:58:18;;;;;;;23.87;14.27;;;22.30;71.30;;;;;;5007108;28;20424;-68
2023/09/11 08:00:43;;;;;;;26.60;14.90;;;22.40;71.00;;;;;;5006417;28;20438;-70
2023/09/11 08:03:09;;;;;;;18.50;12.70;;;22.40;71.00;;;;;;5012995;28;20438;-71
2023/09/11 08:05:35;;;;;;;27.77;14.30;;;22.50;71.30;;;;;;5004824;28;20210;-69
2023/09/11 08:08:02;;;;;;;23.63;13.50;;;22.50;70.80;;;;;;5007700;28;20191;-69
2023/09/11 08:10:28;;;;;;;19.50;14.20;;;22.50;70.70;;;;;;5013720;28;20307;-72
2023/09/11 08:12:54;;;;;;;28.33;14.50;;;22.60;70.70;;;;;;5009227;28;20426;-70
2023/09/11 08:15:20;;;;;;;23.90;13.53;;;22.70;70.20;;;;;;5009422;28;20489;-71
2023/09/11 08:17:46;;;;;;;21.00;13.97;;;22.80;70.20;;;;;;5012696;28;20419;-71
2023/09/11 08:20:13;;;;;;;23.77;15.23;;;22.80;69.90;;;;;;5013453;28;20422;-71
2023/09/11 08:22:39;;;;;;;25.13;14.27;;;22.90;69.80;;;;;;5017940;28;20327;-70
2023/09/11 08:25:05;;;;;;;24.93;13.40;;;23.00;69.50;;;;;;5008828;28;20487;-71
2023/09/11 08:27:31;;;;;;;23.10;12.90;;;23.10;69.20;;;;;;5012599;28;20465;-71
2023/09/11 08:29:57;;;;;;;20.67;12.90;;;23.20;69.10;;;;;;5006803;28;20546;-69
2023/09/11 08:32:23;;;;;;;22.47;13.60;;;23.30;68.30;;;;;;5009973;28;20187;-69
2023/09/11 08:34:49;;;;;;;21.87;13.73;;;23.30;68.50;;;;;;5008230;28;20491;-69
2023/09/11 08:37:14;;;;;;;17.30;12.80;;;23.40;68.60;;;;;;5008890;28;20211;-70
2023/09/11 08:39:40;;;;;;;19.73;12.73;;;23.50;68.50;;;;;;5011667;28;20185;-70
2023/09/11 08:42:08;;;;;;;19.83;13.03;;;23.60;68.20;;;;;;5009131;28;20219;-70
2023/09/11 08:44:33;;;;;;;20.50;13.10;;;23.70;67.90;;;;;;5007499;28;20192;-70
2023/09/11 08:47:03;;;;;;;23.90;14.33;;;23.70;67.70;;;;;;5005888;28;20830;-70
2023/09/11 08:49:33;;;;;;;17.57;12.60;;;23.90;67.60;;;;;;5011598;28;20204;-71
2023/09/11 08:52:03;;;;;;;19.30;13.00;;;24.00;67.50;;;;;;5012504;28;20538;-69
2023/09/11 08:54:37;;;;;;;19.63;13.13;;;24.20;67.00;;;;;;5005205;28;20578;-69
2023/09/11 08:57:03;;;;;;;22.20;12.00;;;24.30;66.40;;;;;;5008248;28;20436;-71
2023/09/11 08:59:32;;;;;;;24.80;13.70;;;24.40;66.30;;;;;;5012036;28;20431;-70
2023/09/11 09:01:58;;;;;;;23.77;13.07;;;24.50;65.70;;;;;;5009081;28;20461;-70
2023/09/11 09:04:25;;;;;;;18.80;12.30;;;24.60;65.30;;;;;;5011764;28;21004;-71
2023/09/11 09:06:51;;;;;;;15.40;11.00;;;24.60;65.40;;;;;;5008086;28;20449;-69
2023/09/11 09:09:18;;;;;;;19.23;12.60;;;24.80;65.40;;;;;;5015104;28;20434;-71
2023/09/11 09:11:48;;;;;;;21.40;14.00;;;24.90;65.00;;;;;;5018096;28;20180;-69
2023/09/11 09:14:17;;;;;;;23.87;13.10;;;25.00;64.40;;;;;;5012167;28;20474;-71
2023/09/11 09:16:47;;;;;;;17.90;13.03;;;25.10;64.20;;;;;;5007770;28;20466;-70
2023/09/11 09:19:12;;;;;;;24.13;13.30;;;25.20;63.80;;;;;;5009790;28;20549;-72
2023/09/11 09:22:07;;;;;;;19.63;12.60;;;25.20;63.80;;;;;;5006906;28;20460;-69
2023/09/11 09:24:45;;;;;;;16.47;11.00;;;25.30;63.80;;;;;;5006468;28;20609;-69
2023/09/11 09:27:11;;;;;;;20.30;11.90;;;25.40;63.20;;;;;;5002837;28;20438;-69
2023/09/11 09:29:38;;;;;;;17.47;11.60;;;25.60;62.90;;;;;;5003872;28;20500;-71
2023/09/11 09:32:06;;;;;;;18.60;11.70;;;25.70;62.20;;;;;;5009207;28;20624;-70
2023/09/11 09:34:32;;;;;;;19.73;12.43;;;25.70;62.20;;;;;;5009804;28;20545;-69
2023/09/11 09:36:58;;;;;;;21.57;12.37;;;25.70;62.00;;;;;;5007911;28;20440;-72
2023/09/11 09:39:28;;;;;;;21.93;11.37;;;25.80;61.70;;;;;;5005726;28;20426;-69
2023/09/11 09:41:54;;;;;;;18.93;12.23;;;26.00;61.30;;;;;;5002778;28;20206;-69
2023/09/11 09:44:29;;;;;;;20.50;12.00;;;26.20;61.00;;;;;;5005569;28;20805;-70
2023/09/11 09:46:54;;;;;;;20.13;13.17;;;26.20;60.70;;;;;;4999264;28;20447;-72
2023/09/11 09:49:23;;;;;;;15.50;11.20;;;26.30;60.30;;;;;;5008154;28;20435;-69
2023/09/11 09:51:49;;;;;;;21.77;10.97;;;26.40;60.00;;;;;;5002380;28;20289;-70
2023/09/11 09:54:14;;;;;;;17.03;10.57;;;26.50;59.90;;;;;;5006008;28;20968;-70
2023/09/11 09:56:40;;;;;;;17.93;11.47;;;26.50;59.90;;;;;;5001857;28;20653;-71
2023/09/11 09:59:07;;;;;;;16.43;11.27;;;26.50;59.90;;;;;;5008932;28;20239;-71
2023/09/11 10:01:44;;;;;;;19.13;11.43;;;26.70;60.10;;;;;;5000901;28;20205;-70
2023/09/11 10:04:16;;;;;;;21.10;11.23;;;26.70;60.00;;;;;;4996978;28;20427;-69
2023/09/11 10:06:42;;;;;;;16.73;10.30;;;26.60;60.00;;;;;;5005518;28;20814;-70
2023/09/11 10:09:10;;;;;;;17.67;10.13;;;26.60;60.10;;;;;;5000226;28;20428;-72
2023/09/11 10:11:37;;;;;;;19.17;11.07;;;26.80;60.00;;;;;;5009790;28;20181;-70
2023/09/11 10:14:05;;;;;;;17.03;10.37;;;26.90;59.60;;;;;;5009164;28;20482;-70
2023/09/11 10:16:31;;;;;;;19.80;10.87;;;27.00;59.60;;;;;;5005840;28;20490;-71
2023/09/11 10:18:58;;;;;;;16.93;10.57;;;27.00;59.30;;;;;;5009179;28;20448;-71
2023/09/11 10:21:25;;;;;;;16.80;10.37;;;27.10;59.50;;;;;;5008696;28;20209;-69
2023/09/11 10:23:52;;;;;;;14.50;10.17;;;27.10;59.60;;;;;;5009595;28;20951;-70
2023/09/11 10:26:23;;;;;;;18.80;10.80;;;27.20;59.50;;;;;;5006418;28;20491;-70
2023/09/11 10:28:50;;;;;;;16.07;10.00;;;27.30;58.90;;;;;;5006687;28;20494;-71
2023/09/11 10:31:35;;;;;;;12.73;9.67;;;27.40;58.50;;;;;;5008532;28;20432;-69
2023/09/11 10:34:02;;;;;;;20.33;11.00;;;27.60;58.70;;;;;;5003801;28;20448;-69
2023/09/11 10:36:36;;;;;;;17.63;11.20;;;27.70;58.80;;;;;;5009309;28;20877;-72
2023/09/11 10:39:04;;;;;;;16.57;10.57;;;27.80;58.40;;;;;;5013123;28;20425;-70
2023/09/11 10:41:32;;;;;;;15.50;10.97;;;27.90;58.10;;;;;;5012976;28;20424;-71
2023/09/11 10:43:57;;;;;;;15.33;10.33;;;28.10;57.60;;;;;;5014363;28;20435;-71
2023/09/11 10:46:23;;;;;;;19.77;11.23;;;28.50;56.90;;;;;;5005272;28;20472;-69
2023/09/11 10:48:51;;;;;;;17.20;10.10;;;29.10;55.70;;;;;;5011701;28;20625;-71
2023/09/11 10:51:17;;;;;;;19.10;9.90;;;29.20;54.90;;;;;;5011517;28;20190;-71
2023/09/11 10:53:47;;;;;;;16.50;9.90;;;29.50;54.80;;;;;;5012291;28;20792;-69
2023/09/11 10:56:13;;;;;;;14.87;9.30;;;30.00;54.00;;;;;;5005422;28;20225;-70
2023/09/11 10:58:40;;;;;;;19.10;9.20;;;30.60;53.00;;;;;;5021585;28;20437;-70
2023/09/11 11:01:07;;;;;;;18.10;10.20;;;31.00;51.30;;;;;;5020871;28;20190;-71
2023/09/11 11:03:34;;;;;;;13.37;8.90;;;31.20;49.90;;;;;;5019818;28;20918;-69
2023/09/11 11:06:04;;;;;;;19.10;9.33;;;31.40;50.20;;;;;;5015627;28;20213;-71
2023/09/11 11:08:34;;;;;;;14.07;8.53;;;31.70;49.50;;;;;;5019287;28;20484;-72
2023/09/11 11:11:01;;;;;;;13.00;9.17;;;31.90;49.70;;;;;;5014092;28;20440;-70
2023/09/11 11:13:27;;;;;;;14.70;9.03;;;32.20;49.00;;;;;;5019071;28;20448;-69
2023/09/11 11:16:15;;;;;;;11.57;9.00;;;32.50;47.70;;;;;;5013624;28;20506;-69
2023/09/11 11:18:41;;;;;;;14.43;9.20;;;32.50;47.40;;;;;;5023314;28;20923;-69
2023/09/11 11:21:09;;;;;;;14.13;8.13;;;32.50;48.30;;;;;;5018951;28;21009;-69
2023/09/11 11:23:56;;;;;;;15.13;9.47;;;32.90;46.90;;;;;;5020293;28;20425;-69
2023/09/11 11:26:25;;;;;;;16.50;9.73;;;33.00;46.50;;;;;;5017805;28;20503;-70
2023/09/11 11:28:52;;;;;;;15.60;9.97;;;32.80;46.50;;;;;;5021014;28;20421;-71
2023/09/11 11:31:19;;;;;;;19.43;10.40;;;32.20;47.70;;;;;;5018063;28;20785;-70
2023/09/11 11:33:46;;;;;;;13.60;8.90;;;32.10;47.70;;;;;;5023007;28;20437;-69
2023/09/11 11:36:14;;;;;;;14.70;8.93;;;32.30;48.10;;;;;;5018989;28;20516;-69
2023/09/11 11:38:42;;;;;;;17.47;8.87;;;32.50;47.50;;;;;;5022009;28;20451;-68
2023/09/11 11:41:08;;;;;;;18.60;9.80;;;32.70;47.10;;;;;;5020437;28;20433;-69
2023/09/11 11:43:34;;;;;;;20.20;10.70;;;32.90;47.10;;;;;;5029551;28;20433;-70
2023/09/11 11:46:01;;;;;;;16.83;9.93;;;32.70;46.60;;;;;;5022102;28;20472;-70
2023/09/11 11:48:27;;;;;;;14.30;9.03;;;32.90;46.20;;;;;;5031664;28;20421;-70
2023/09/11 11:50:54;;;;;;;14.43;9.30;;;32.90;46.50;;;;;;5028000;28;20536;-69
2023/09/11 11:53:22;;;;;;;14.23;9.30;;;32.50;46.90;;;;;;5031686;28;20440;-71
2023/09/11 11:55:49;;;;;;;13.70;9.17;;;32.40;47.50;;;;;;5021709;28;20519;-69
2023/09/11 11:58:15;;;;;;;17.57;9.53;;;32.70;47.00;;;;;;5024942;28;20432;-69
2023/09/11 12:00:58;;;;;;;14.33;10.43;;;32.80;46.30;;;;;;5025818;28;20440;-70
2023/09/11 12:03:25;;;;;;;14.87;9.73;;;32.70;46.50;;;;;;5014574;28;20441;-71
2023/09/11 12:05:51;;;;;;;13.33;9.43;;;32.40;47.00;;;;;;5003877;28;20460;-71
2023/09/11 12:08:17;;;;;;;14.80;8.87;;;31.60;48.10;;;;;;5013725;28;20448;-70
2023/09/11 12:10:50;;;;;;;13.63;8.77;;;31.40;49.30;;;;;;5012210;28;20436;-71
2023/09/11 12:13:24;;;;;;;12.40;8.50;;;32.00;48.20;;;;;;5010971;28;20182;-71
2023/09/11 12:15:54;;;;;;;12.97;8.30;;;32.50;46.30;;;;;;5012079;28;20567;-71
2023/09/11 12:18:21;;;;;;;18.10;9.70;;;32.80;45.80;;;;;;5013219;28;20540;-70
2023/09/11 12:20:58;;;;;;;13.57;9.90;;;32.60;46.30;;;;;;5020248;28;20425;-70
2023/09/11 12:23:25;;;;;;;22.60;10.87;;;32.20;47.80;;;;;;5013122;28;20433;-70
2023/09/11 12:25:52;;;;;;;20.60;9.40;;;31.80;48.50;;;;;;5003494;28;21024;-70
2023/09/11 12:28:21;;;;;;;15.80;9.97;;;31.70;48.50;;;;;;5011099;28;20433;-70
2023/09/11 12:30:48;;;;;;;13.33;8.90;;;31.50;48.90;;;;;;5002315;28;20453;-69